sensor_id;sensor_type;location;lat;lon;timestamp;temperature;humidity
71084;DHT22;58741;52.672;13.548;2023-07-02T00:00:56;17.70;99.90
71084;DHT22;58741;52.672;13.548;2023-07-02T00:03:21;17.70;99.90
71084;DHT22;58741;52.672;13.548;2023-07-02T00:05:47;17.70;99.90
71084;DHT22;58741;52.672;13.548;2023-07-02T00:08:15;17.70;99.90
71084;DHT22;58741;52.672;13.548;2023-07-02T00:10:41;17.60;99.90
71084;DHT22;58741;52.672;13.548;2023-07-02T00:13:07;17.60;99.90
71084;DHT22;58741;52.672;13.548;2023-07-02T00:15:32;17.60;99.90
71084;DHT22;58741;52.672;13.548;2023-07-02T00:17:58;17.60;99.90
71084;DHT22;58741;52.672;13.548;2023-07-02T00:20:23;17.60;99.90
71084;DHT22;58741;52.672;13.548;2023-07-02T00:22:50;17.60;99.90
71084;DHT22;58741;52.672;13.548;2023-07-02T00:25:15;17.50;99.90
71084;DHT22;58741;52.672;13.548;2023-07-02T00:27:41;17.50;99.90
71084;DHT22;58741;52.672;13.548;2023-07-02T00:30:07;17.50;99.90
71084;DHT22;58741;52.672;13.548;2023-07-02T00:32:33;17.40;99.90
71084;DHT22;58741;52.672;13.548;2023-07-02T00:34:59;17.40;99.90
71084;DHT22;58741;52.672;13.548;2023-07-02T00:37:25;17.40;99.90
71084;DHT22;58741;52.672;13.548;2023-07-02T00:39:50;17.40;99.90
71084;DHT22;58741;52.672;13.548;2023-07-02T00:42:17;17.40;99.90
71084;DHT22;58741;52.672;13.548;2023-07-02T00:44:43;17.40;99.90
71084;DHT22;58741;52.672;13.548;2023-07-02T00:47:10;17.40;99.90
71084;DHT22;58741;52.672;13.548;2023-07-02T00:49:36;17.50;99.90
71084;DHT22;58741;52.672;13.548;2023-07-02T00:52:02;17.40;99.90
71084;DHT22;58741;52.672;13.548;2023-07-02T00:54:28;17.40;99.90
71084;DHT22;58741;52.672;13.548;2023-07-02T00:56:54;17.40;99.90
71084;DHT22;58741;52.672;13.548;2023-07-02T00:59:20;17.40;99.90
71084;DHT22;58741;52.672;13.548;2023-07-02T01:01:46;17.40;99.90
71084;DHT22;58741;52.672;13.548;2023-07-02T01:04:17;17.40;99.90
71084;DHT22;58741;52.672;13.548;2023-07-02T01:06:43;17.30;99.90
71084;DHT22;58741;52.672;13.548;2023-07-02T01:09:10;17.30;99.90
71084;DHT22;58741;52.672;13.548;2023-07-02T01:11:45;17.30;99.90
71084;DHT22;58741;52.672;13.548;2023-07-02T01:14:34;17.30;99.90
71084;DHT22;58741;52.672;13.548;2023-07-02T01:17:03;17.30;99.90
71084;DHT22;58741;52.672;13.548;2023-07-02T01:22:12;17.30;99.90
71084;DHT22;58741;52.672;13.548;2023-07-02T01:24:41;17.30;99.90
71084;DHT22;58741;52.672;13.548;2023-07-02T01:27:07;17.30;99.90
71084;DHT22;58741;52.672;13.548;2023-07-02T01:29:33;17.30;99.90
71084;DHT22;58741;52.672;13.548;2023-07-02T01:32:02;17.30;99.90
71084;DHT22;58741;52.672;13.548;2023-07-02T01:34:28;17.30;99.90
71084;DHT22;58741;52.672;13.548;2023-07-02T01:36:53;17.30;99.90
71084;DHT22;58741;52.672;13.548;2023-07-02T01:39:19;17.20;99.90
71084;DHT22;58741;52.672;13.548;2023-07-02T01:41:49;17.20;99.90
71084;DHT22;58741;52.672;13.548;2023-07-02T01:44:14;17.10;99.90
71084;DHT22;58741;52.672;13.548;2023-07-02T01:46:40;17.10;99.90
71084;DHT22;58741;52.672;13.548;2023-07-02T01:49:05;17.20;99.90
71084;DHT22;58741;52.672;13.548;2023-07-02T01:51:31;17.10;99.90
71084;DHT22;58741;52.672;13.548;2023-07-02T01:53:56;17.10;99.90
71084;DHT22;58741;52.672;13.548;2023-07-02T01:56:22;17.10;99.90
71084;DHT22;58741;52.672;13.548;2023-07-02T01:58:48;17.00;99.90
71084;DHT22;58741;52.672;13.548;2023-07-02T02:01:13;17.00;99.90
71084;DHT22;58741;52.672;13.548;2023-07-02T02:03:39;17.00;99.90
71084;DHT22;58741;52.672;13.548;2023-07-02T02:06:04;17.00;99.90
71084;DHT22;58741;52.672;13.548;2023-07-02T02:08:30;16.90;99.90
71084;DHT22;58741;52.672;13.548;2023-07-02T02:10:55;16.90;99.90
71084;DHT22;58741;52.672;13.548;2023-07-02T02:13:21;16.90;99.90
71084;DHT22;58741;52.672;13.548;2023-07-02T02:15:48;16.90;99.90
71084;DHT22;58741;52.672;13.548;2023-07-02T02:18:13;16.80;99.90
71084;DHT22;58741;52.672;13.548;2023-07-02T02:20:40;16.80;99.90
71084;DHT22;58741;52.672;13.548;2023-07-02T02:23:06;16.80;99.90
71084;DHT22;58741;52.672;13.548;2023-07-02T02:25:31;16.70;99.90
71084;DHT22;58741;52.672;13.548;2023-07-02T02:27:57;16.80;99.90
71084;DHT22;58741;52.672;13.548;2023-07-02T02:30:23;16.70;99.90
71084;DHT22;58741;52.672;13.548;2023-07-02T02:32:49;16.80;99.90
71084;DHT22;58741;52.672;13.548;2023-07-02T02:35:15;16.80;99.90
71084;DHT22;58741;52.672;13.548;2023-07-02T02:37:41;16.80;99.90
71084;DHT22;58741;52.672;13.548;2023-07-02T02:40:08;16.70;99.90
71084;DHT22;58741;52.672;13.548;2023-07-02T02:42:38;16.70;99.90
71084;DHT22;58741;52.672;13.548;2023-07-02T02:45:05;16.70;99.90
71084;DHT22;58741;52.672;13.548;2023-07-02T02:47:30;16.70;99.90
71084;DHT22;58741;52.672;13.548;2023-07-02T02:49:56;16.70;99.90
71084;DHT22;58741;52.672;13.548;2023-07-02T02:52:21;16.70;99.90
71084;DHT22;58741;52.672;13.548;2023-07-02T02:54:47;16.60;99.90
71084;DHT22;58741;52.672;13.548;2023-07-02T02:57:13;16.60;99.90
71084;DHT22;58741;52.672;13.548;2023-07-02T02:59:39;16.60;99.90
71084;DHT22;58741;52.672;13.548;2023-07-02T03:02:04;16.50;99.90
71084;DHT22;58741;52.672;13.548;2023-07-02T03:04:30;16.60;99.90
71084;DHT22;58741;52.672;13.548;2023-07-02T03:06:56;16.60;99.90
71084;DHT22;58741;52.672;13.548;2023-07-02T03:09:22;16.60;99.90
71084;DHT22;58741;52.672;13.548;2023-07-02T03:11:47;16.50;99.90
71084;DHT22;58741;52.672;13.548;2023-07-02T03:14:13;16.60;99.90
71084;DHT22;58741;52.672;13.548;2023-07-02T03:16:41;16.50;99.90
71084;DHT22;58741;52.672;13.548;2023-07-02T03:19:06;16.50;99.90
71084;DHT22;58741;52.672;13.548;2023-07-02T03:21:32;16.50;99.90
71084;DHT22;58741;52.672;13.548;2023-07-02T03:23:58;16.50;99.90
71084;DHT22;58741;52.672;13.548;2023-07-02T03:26:23;16.40;99.90
71084;DHT22;58741;52.672;13.548;2023-07-02T03:28:49;16.40;99.90
71084;DHT22;58741;52.672;13.548;2023-07-02T03:31:15;16.40;99.90
71084;DHT22;58741;52.672;13.548;2023-07-02T03:33:40;16.30;99.90
71084;DHT22;58741;52.672;13.548;2023-07-02T03:36:06;16.30;99.90
71084;DHT22;58741;52.672;13.548;2023-07-02T03:38:32;16.30;99.90
71084;DHT22;58741;52.672;13.548;2023-07-02T03:40:58;16.30;99.90
71084;DHT22;58741;52.672;13.548;2023-07-02T03:43:23;16.30;99.90
71084;DHT22;58741;52.672;13.548;2023-07-02T03:45:52;16.30;99.90
71084;DHT22;58741;52.672;13.548;2023-07-02T03:48:18;16.30;99.90
71084;DHT22;58741;52.672;13.548;2023-07-02T03:50:43;16.30;99.90
71084;DHT22;58741;52.672;13.548;2023-07-02T03:53:09;16.30;99.90
71084;DHT22;58741;52.672;13.548;2023-07-02T03:55:35;16.30;99.90
71084;DHT22;58741;52.672;13.548;2023-07-02T03:58:01;16.30;99.90
71084;DHT22;58741;52.672;13.548;2023-07-02T04:00:26;16.30;99.90
71084;DHT22;58741;52.672;13.548;2023-07-02T04:02:52;16.30;99.90
71084;DHT22;58741;52.672;13.548;2023-07-02T04:05:17;16.30;99.90
71084;DHT22;58741;52.672;13.548;2023-07-02T04:07:43;16.30;99.90
71084;DHT22;58741;52.672;13.548;2023-07-02T04:10:08;16.30;99.90
71084;DHT22;58741;52.672;13.548;2023-07-02T04:12:34;16.20;99.90
71084;DHT22;58741;52.672;13.548;2023-07-02T04:15:00;16.20;99.90
71084;DHT22;58741;52.672;13.548;2023-07-02T04:17:25;16.30;99.90
71084;DHT22;58741;52.672;13.548;2023-07-02T04:19:54;16.20;99.90
71084;DHT22;58741;52.672;13.548;2023-07-02T04:22:20;16.20;99.90
71084;DHT22;58741;52.672;13.548;2023-07-02T04:24:46;16.20;99.90
71084;DHT22;58741;52.672;13.548;2023-07-02T04:27:15;16.20;99.90
71084;DHT22;58741;52.672;13.548;2023-07-02T04:29:43;16.30;99.90
71084;DHT22;58741;52.672;13.548;2023-07-02T04:32:09;16.30;99.90
71084;DHT22;58741;52.672;13.548;2023-07-02T04:34:34;16.30;99.90
71084;DHT22;58741;52.672;13.548;2023-07-02T04:37:03;16.30;99.90
71084;DHT22;58741;52.672;13.548;2023-07-02T04:39:29;16.40;99.90
71084;DHT22;58741;52.672;13.548;2023-07-02T04:41:54;16.30;99.90
71084;DHT22;58741;52.672;13.548;2023-07-02T04:44:20;16.40;99.90
71084;DHT22;58741;52.672;13.548;2023-07-02T04:46:57;16.40;99.90
71084;DHT22;58741;52.672;13.548;2023-07-02T04:49:22;16.40;99.90
71084;DHT22;58741;52.672;13.548;2023-07-02T04:51:48;16.50;99.90
71084;DHT22;58741;52.672;13.548;2023-07-02T04:54:13;16.50;99.90
71084;DHT22;58741;52.672;13.548;2023-07-02T04:56:39;16.50;99.90
71084;DHT22;58741;52.672;13.548;2023-07-02T04:59:04;16.50;99.90
71084;DHT22;58741;52.672;13.548;2023-07-02T05:01:30;16.60;99.90
71084;DHT22;58741;52.672;13.548;2023-07-02T05:03:56;16.60;99.90
71084;DHT22;58741;52.672;13.548;2023-07-02T05:06:21;16.60;99.90
71084;DHT22;58741;52.672;13.548;2023-07-02T05:08:47;16.60;99.90
71084;DHT22;58741;52.672;13.548;2023-07-02T05:11:12;16.60;99.90
71084;DHT22;58741;52.672;13.548;2023-07-02T05:13:38;16.60;99.90
71084;DHT22;58741;52.672;13.548;2023-07-02T05:16:04;16.70;99.90
71084;DHT22;58741;52.672;13.548;2023-07-02T05:18:29;16.70;99.90
71084;DHT22;58741;52.672;13.548;2023-07-02T05:20:55;16.70;99.90
71084;DHT22;58741;52.672;13.548;2023-07-02T05:23:20;16.80;99.90
71084;DHT22;58741;52.672;13.548;2023-07-02T05:25:46;16.90;99.90
71084;DHT22;58741;52.672;13.548;2023-07-02T05:28:11;16.90;99.90
71084;DHT22;58741;52.672;13.548;2023-07-02T05:30:37;17.00;99.90
71084;DHT22;58741;52.672;13.548;2023-07-02T05:33:02;17.00;99.90
71084;DHT22;58741;52.672;13.548;2023-07-02T05:35:28;17.10;99.90
71084;DHT22;58741;52.672;13.548;2023-07-02T05:37:54;17.00;99.90
71084;DHT22;58741;52.672;13.548;2023-07-02T05:40:19;17.10;99.90
71084;DHT22;58741;52.672;13.548;2023-07-02T05:42:45;17.10;99.90
71084;DHT22;58741;52.672;13.548;2023-07-02T05:45:10;17.20;99.90
71084;DHT22;58741;52.672;13.548;2023-07-02T05:47:36;17.40;99.90
71084;DHT22;58741;52.672;13.548;2023-07-02T05:50:02;17.50;99.90
71084;DHT22;58741;52.672;13.548;2023-07-02T05:52:27;17.50;99.90
71084;DHT22;58741;52.672;13.548;2023-07-02T05:54:53;17.60;99.90
71084;DHT22;58741;52.672;13.548;2023-07-02T05:57:18;17.70;99.90
71084;DHT22;58741;52.672;13.548;2023-07-02T05:59:44;17.80;99.90
71084;DHT22;58741;52.672;13.548;2023-07-02T06:02:09;17.90;99.90
71084;DHT22;58741;52.672;13.548;2023-07-02T06:04:35;17.90;99.90
71084;DHT22;58741;52.672;13.548;2023-07-02T06:07:01;18.10;99.90
71084;DHT22;58741;52.672;13.548;2023-07-02T06:09:26;18.10;99.90
71084;DHT22;58741;52.672;13.548;2023-07-02T06:11:52;18.20;99.90
71084;DHT22;58741;52.672;13.548;2023-07-02T06:14:18;18.20;99.90
71084;DHT22;58741;52.672;13.548;2023-07-02T06:16:43;18.20;99.90
71084;DHT22;58741;52.672;13.548;2023-07-02T06:19:09;18.20;99.90
71084;DHT22;58741;52.672;13.548;2023-07-02T06:21:35;18.20;99.90
71084;DHT22;58741;52.672;13.548;2023-07-02T06:24:01;18.30;99.90
71084;DHT22;58741;52.672;13.548;2023-07-02T06:26:27;18.30;99.90
71084;DHT22;58741;52.672;13.548;2023-07-02T06:28:53;18.30;99.90
71084;DHT22;58741;52.672;13.548;2023-07-02T06:31:18;18.30;99.90
71084;DHT22;58741;52.672;13.548;2023-07-02T06:33:44;18.30;99.90
71084;DHT22;58741;52.672;13.548;2023-07-02T06:36:10;18.30;99.90
71084;DHT22;58741;52.672;13.548;2023-07-02T06:38:36;18.30;99.90
71084;DHT22;58741;52.672;13.548;2023-07-02T06:41:03;18.30;99.90
71084;DHT22;58741;52.672;13.548;2023-07-02T06:43:28;18.20;99.90
71084;DHT22;58741;52.672;13.548;2023-07-02T06:45:54;18.20;99.90
71084;DHT22;58741;52.672;13.548;2023-07-02T06:48:19;18.30;99.90
71084;DHT22;58741;52.672;13.548;2023-07-02T06:50:46;18.40;99.90
71084;DHT22;58741;52.672;13.548;2023-07-02T06:53:12;18.60;99.90
71084;DHT22;58741;52.672;13.548;2023-07-02T06:55:38;18.80;99.90
71084;DHT22;58741;52.672;13.548;2023-07-02T06:58:07;18.90;99.90
71084;DHT22;58741;52.672;13.548;2023-07-02T07:00:33;19.10;99.90
71084;DHT22;58741;52.672;13.548;2023-07-02T07:03:05;19.20;99.90
71084;DHT22;58741;52.672;13.548;2023-07-02T07:05:31;19.30;99.90
71084;DHT22;58741;52.672;13.548;2023-07-02T07:07:58;19.50;99.90
71084;DHT22;58741;52.672;13.548;2023-07-02T07:10:24;19.70;99.90
71084;DHT22;58741;52.672;13.548;2023-07-02T07:12:49;19.90;99.90
71084;DHT22;58741;52.672;13.548;2023-07-02T07:15:15;20.00;99.90
71084;DHT22;58741;52.672;13.548;2023-07-02T07:17:41;20.20;99.60
71084;DHT22;58741;52.672;13.548;2023-07-02T07:20:06;20.30;98.90
71084;DHT22;58741;52.672;13.548;2023-07-02T07:22:34;20.40;96.90
71084;DHT22;58741;52.672;13.548;2023-07-02T07:25:00;20.40;98.50
71084;DHT22;58741;52.672;13.548;2023-07-02T07:27:25;20.60;98.50
71084;DHT22;58741;52.672;13.548;2023-07-02T07:29:51;20.60;96.20
71084;DHT22;58741;52.672;13.548;2023-07-02T07:32:16;20.60;95.40
71084;DHT22;58741;52.672;13.548;2023-07-02T07:34:42;20.50;94.40
71084;DHT22;58741;52.672;13.548;2023-07-02T07:37:08;20.40;93.70
71084;DHT22;58741;52.672;13.548;2023-07-02T07:39:33;20.40;97.50
71084;DHT22;58741;52.672;13.548;2023-07-02T07:41:59;20.50;93.70
71084;DHT22;58741;52.672;13.548;2023-07-02T07:44:24;20.50;94.60
71084;DHT22;58741;52.672;13.548;2023-07-02T07:46:55;20.50;94.40
71084;DHT22;58741;52.672;13.548;2023-07-02T07:49:21;20.40;93.30
71084;DHT22;58741;52.672;13.548;2023-07-02T07:51:47;20.30;96.40
71084;DHT22;58741;52.672;13.548;2023-07-02T07:54:13;20.30;94.70
71084;DHT22;58741;52.672;13.548;2023-07-02T07:56:38;20.30;95.40
71084;DHT22;58741;52.672;13.548;2023-07-02T07:59:04;20.30;93.60
71084;DHT22;58741;52.672;13.548;2023-07-02T08:01:29;20.30;95.10
71084;DHT22;58741;52.672;13.548;2023-07-02T08:03:55;20.20;92.30
71084;DHT22;58741;52.672;13.548;2023-07-02T08:06:21;20.10;94.20
71084;DHT22;58741;52.672;13.548;2023-07-02T08:08:47;20.20;93.30
71084;DHT22;58741;52.672;13.548;2023-07-02T08:11:12;20.40;95.10
71084;DHT22;58741;52.672;13.548;2023-07-02T08:13:38;20.60;93.60
71084;DHT22;58741;52.672;13.548;2023-07-02T08:16:04;20.80;92.70
71084;DHT22;58741;52.672;13.548;2023-07-02T08:18:29;20.90;94.20
71084;DHT22;58741;52.672;13.548;2023-07-02T08:20:55;21.10;92.40
71084;DHT22;58741;52.672;13.548;2023-07-02T08:23:20;21.20;92.30
71084;DHT22;58741;52.672;13.548;2023-07-02T08:25:46;21.20;93.60
71084;DHT22;58741;52.672;13.548;2023-07-02T08:28:12;21.10;92.90
71084;DHT22;58741;52.672;13.548;2023-07-02T08:30:37;21.00;92.80
71084;DHT22;58741;52.672;13.548;2023-07-02T08:33:03;21.00;92.10
71084;DHT22;58741;52.672;13.548;2023-07-02T08:35:28;20.80;91.90
71084;DHT22;58741;52.672;13.548;2023-07-02T08:37:54;20.70;92.90
71084;DHT22;58741;52.672;13.548;2023-07-02T08:40:20;20.50;91.60
71084;DHT22;58741;52.672;13.548;2023-07-02T08:42:46;20.50;92.90
71084;DHT22;58741;52.672;13.548;2023-07-02T08:45:15;20.30;93.30
71084;DHT22;58741;52.672;13.548;2023-07-02T08:47:42;20.30;93.90
71084;DHT22;58741;52.672;13.548;2023-07-02T08:50:08;20.30;94.40
71084;DHT22;58741;52.672;13.548;2023-07-02T08:52:34;20.30;95.40
71084;DHT22;58741;52.672;13.548;2023-07-02T08:55:00;20.30;95.10
71084;DHT22;58741;52.672;13.548;2023-07-02T08:57:25;20.30;94.20
71084;DHT22;58741;52.672;13.548;2023-07-02T08:59:51;20.20;93.10
71084;DHT22;58741;52.672;13.548;2023-07-02T09:02:17;20.20;94.00
71084;DHT22;58741;52.672;13.548;2023-07-02T09:04:43;20.10;93.30
71084;DHT22;58741;52.672;13.548;2023-07-02T09:07:10;20.10;94.60
71084;DHT22;58741;52.672;13.548;2023-07-02T09:09:49;20.10;92.40
71084;DHT22;58741;52.672;13.548;2023-07-02T09:12:25;20.00;93.60
71084;DHT22;58741;52.672;13.548;2023-07-02T09:14:55;20.00;93.50
71084;DHT22;58741;52.672;13.548;2023-07-02T09:17:26;20.10;95.30
71084;DHT22;58741;52.672;13.548;2023-07-02T09:19:51;20.30;92.80
71084;DHT22;58741;52.672;13.548;2023-07-02T09:22:17;20.30;92.90
71084;DHT22;58741;52.672;13.548;2023-07-02T09:24:51;20.40;95.10
71084;DHT22;58741;52.672;13.548;2023-07-02T09:27:18;20.50;95.10
71084;DHT22;58741;52.672;13.548;2023-07-02T09:29:50;20.70;90.00
71084;DHT22;58741;52.672;13.548;2023-07-02T09:32:24;20.70;89.40
71084;DHT22;58741;52.672;13.548;2023-07-02T09:34:53;20.70;86.70
71084;DHT22;58741;52.672;13.548;2023-07-02T09:37:19;20.70;86.20
71084;DHT22;58741;52.672;13.548;2023-07-02T09:39:49;20.70;91.90
71084;DHT22;58741;52.672;13.548;2023-07-02T09:42:16;20.90;91.60
71084;DHT22;58741;52.672;13.548;2023-07-02T09:44:45;21.10;89.10
71084;DHT22;58741;52.672;13.548;2023-07-02T09:47:12;21.20;86.30
71084;DHT22;58741;52.672;13.548;2023-07-02T09:49:40;21.50;91.50
71084;DHT22;58741;52.672;13.548;2023-07-02T09:52:10;21.70;81.60
71084;DHT22;58741;52.672;13.548;2023-07-02T09:54:37;21.90;81.70
71084;DHT22;58741;52.672;13.548;2023-07-02T09:57:04;21.90;74.50
71084;DHT22;58741;52.672;13.548;2023-07-02T09:59:30;21.80;79.20
71084;DHT22;58741;52.672;13.548;2023-07-02T10:01:56;21.70;75.70
71084;DHT22;58741;52.672;13.548;2023-07-02T10:04:22;21.70;81.30
71084;DHT22;58741;52.672;13.548;2023-07-02T10:06:54;21.70;82.50
71084;DHT22;58741;52.672;13.548;2023-07-02T10:09:39;21.80;85.10
71084;DHT22;58741;52.672;13.548;2023-07-02T10:12:21;22.10;80.00
71084;DHT22;58741;52.672;13.548;2023-07-02T10:14:50;22.30;87.80
71084;DHT22;58741;52.672;13.548;2023-07-02T10:17:31;22.40;73.10
71084;DHT22;58741;52.672;13.548;2023-07-02T10:19:59;22.20;71.50
71084;DHT22;58741;52.672;13.548;2023-07-02T10:22:26;22.20;74.40
71084;DHT22;58741;52.672;13.548;2023-07-02T10:24:58;22.20;79.80
71084;DHT22;58741;52.672;13.548;2023-07-02T10:30:00;22.20;79.50
71084;DHT22;58741;52.672;13.548;2023-07-02T10:32:26;22.20;76.70
71084;DHT22;58741;52.672;13.548;2023-07-02T10:34:53;22.10;75.50
71084;DHT22;58741;52.672;13.548;2023-07-02T10:37:19;22.00;79.50
71084;DHT22;58741;52.672;13.548;2023-07-02T10:39:45;21.90;75.30
71084;DHT22;58741;52.672;13.548;2023-07-02T10:42:11;21.80;75.50
71084;DHT22;58741;52.672;13.548;2023-07-02T10:44:52;21.90;78.80
71084;DHT22;58741;52.672;13.548;2023-07-02T10:47:19;22.00;76.80
71084;DHT22;58741;52.672;13.548;2023-07-02T10:49:45;22.10;78.00
71084;DHT22;58741;52.672;13.548;2023-07-02T10:52:10;22.10;76.20
71084;DHT22;58741;52.672;13.548;2023-07-02T10:57:09;22.10;76.20
71084;DHT22;58741;52.672;13.548;2023-07-02T10:59:35;22.30;76.30
71084;DHT22;58741;52.672;13.548;2023-07-02T11:02:01;22.40;67.10
71084;DHT22;58741;52.672;13.548;2023-07-02T11:04:29;22.30;71.40
71084;DHT22;58741;52.672;13.548;2023-07-02T11:06:55;22.50;71.30
71084;DHT22;58741;52.672;13.548;2023-07-02T11:09:21;22.60;67.60
71084;DHT22;58741;52.672;13.548;2023-07-02T11:12:05;22.50;67.10
71084;DHT22;58741;52.672;13.548;2023-07-02T11:14:35;22.30;68.90
71084;DHT22;58741;52.672;13.548;2023-07-02T11:17:06;22.30;67.90
71084;DHT22;58741;52.672;13.548;2023-07-02T11:19:33;22.30;66.30
71084;DHT22;58741;52.672;13.548;2023-07-02T11:21:59;22.30;66.20
71084;DHT22;58741;52.672;13.548;2023-07-02T11:24:32;22.40;69.80
71084;DHT22;58741;52.672;13.548;2023-07-02T11:26:59;22.50;67.40
71084;DHT22;58741;52.672;13.548;2023-07-02T11:29:25;22.70;65.90
71084;DHT22;58741;52.672;13.548;2023-07-02T11:31:51;22.70;63.50
71084;DHT22;58741;52.672;13.548;2023-07-02T11:34:18;22.80;68.20
71084;DHT22;58741;52.672;13.548;2023-07-02T11:36:45;22.90;63.00
71084;DHT22;58741;52.672;13.548;2023-07-02T11:39:11;23.00;63.70
71084;DHT22;58741;52.672;13.548;2023-07-02T11:41:44;23.20;64.50
71084;DHT22;58741;52.672;13.548;2023-07-02T11:44:11;23.40;64.10
71084;DHT22;58741;52.672;13.548;2023-07-02T11:46:37;23.40;62.00
71084;DHT22;58741;52.672;13.548;2023-07-02T11:49:04;23.30;57.10
71084;DHT22;58741;52.672;13.548;2023-07-02T11:51:30;23.10;61.00
71084;DHT22;58741;52.672;13.548;2023-07-02T11:53:57;23.00;59.20
71084;DHT22;58741;52.672;13.548;2023-07-02T11:56:23;22.90;58.50
71084;DHT22;58741;52.672;13.548;2023-07-02T11:58:49;22.70;59.60
71084;DHT22;58741;52.672;13.548;2023-07-02T12:01:14;22.40;56.80
71084;DHT22;58741;52.672;13.548;2023-07-02T12:03:40;22.40;59.00
71084;DHT22;58741;52.672;13.548;2023-07-02T12:06:06;22.60;59.80
71084;DHT22;58741;52.672;13.548;2023-07-02T12:08:31;22.70;55.20
71084;DHT22;58741;52.672;13.548;2023-07-02T12:10:57;22.90;60.10
71084;DHT22;58741;52.672;13.548;2023-07-02T12:13:22;23.10;59.50
71084;DHT22;58741;52.672;13.548;2023-07-02T12:15:48;23.30;55.60
71084;DHT22;58741;52.672;13.548;2023-07-02T12:18:15;23.50;57.40
71084;DHT22;58741;52.672;13.548;2023-07-02T12:20:41;23.50;55.80
71084;DHT22;58741;52.672;13.548;2023-07-02T12:23:06;23.70;57.40
71084;DHT22;58741;52.672;13.548;2023-07-02T12:25:32;23.90;54.50
71084;DHT22;58741;52.672;13.548;2023-07-02T12:27:58;24.00;56.50
71084;DHT22;58741;52.672;13.548;2023-07-02T12:30:23;24.10;60.50
71084;DHT22;58741;52.672;13.548;2023-07-02T12:32:49;24.10;60.80
71084;DHT22;58741;52.672;13.548;2023-07-02T12:35:14;24.00;58.30
71084;DHT22;58741;52.672;13.548;2023-07-02T12:37:44;23.80;55.60
71084;DHT22;58741;52.672;13.548;2023-07-02T12:40:11;23.60;55.70
71084;DHT22;58741;52.672;13.548;2023-07-02T12:42:37;23.30;55.50
71084;DHT22;58741;52.672;13.548;2023-07-02T12:45:03;23.20;56.90
71084;DHT22;58741;52.672;13.548;2023-07-02T12:47:28;22.90;57.80
71084;DHT22;58741;52.672;13.548;2023-07-02T12:49:54;22.70;59.20
71084;DHT22;58741;52.672;13.548;2023-07-02T12:52:19;22.80;59.50
71084;DHT22;58741;52.672;13.548;2023-07-02T12:54:45;23.10;62.50
71084;DHT22;58741;52.672;13.548;2023-07-02T12:57:11;23.30;58.30
71084;DHT22;58741;52.672;13.548;2023-07-02T12:59:36;23.30;55.80
71084;DHT22;58741;52.672;13.548;2023-07-02T13:02:02;23.20;56.30
71084;DHT22;58741;52.672;13.548;2023-07-02T13:04:27;23.20;61.10
71084;DHT22;58741;52.672;13.548;2023-07-02T13:06:53;23.40;55.60
71084;DHT22;58741;52.672;13.548;2023-07-02T13:09:19;23.30;58.70
71084;DHT22;58741;52.672;13.548;2023-07-02T13:11:44;23.60;57.40
71084;DHT22;58741;52.672;13.548;2023-07-02T13:14:10;23.70;55.20
71084;DHT22;58741;52.672;13.548;2023-07-02T13:16:35;23.60;54.90
71084;DHT22;58741;52.672;13.548;2023-07-02T13:19:01;23.50;55.50
71084;DHT22;58741;52.672;13.548;2023-07-02T13:21:28;23.30;56.40
71084;DHT22;58741;52.672;13.548;2023-07-02T13:23:53;23.10;57.90
71084;DHT22;58741;52.672;13.548;2023-07-02T13:26:19;23.10;56.40
71084;DHT22;58741;52.672;13.548;2023-07-02T13:28:45;23.00;56.70
71084;DHT22;58741;52.672;13.548;2023-07-02T13:31:14;23.10;54.20
71084;DHT22;58741;52.672;13.548;2023-07-02T13:33:40;23.20;58.30
71084;DHT22;58741;52.672;13.548;2023-07-02T13:36:06;23.50;57.10
71084;DHT22;58741;52.672;13.548;2023-07-02T13:38:31;23.40;53.70
71084;DHT22;58741;52.672;13.548;2023-07-02T13:40:57;23.20;54.00
71084;DHT22;58741;52.672;13.548;2023-07-02T13:43:23;23.10;53.10
71084;DHT22;58741;52.672;13.548;2023-07-02T13:45:49;23.10;55.20
71084;DHT22;58741;52.672;13.548;2023-07-02T13:48:14;23.10;54.50
71084;DHT22;58741;52.672;13.548;2023-07-02T13:50:40;23.10;53.80
71084;DHT22;58741;52.672;13.548;2023-07-02T13:53:05;22.80;53.40
71084;DHT22;58741;52.672;13.548;2023-07-02T13:55:31;22.70;54.60
71084;DHT22;58741;52.672;13.548;2023-07-02T13:57:57;22.80;54.20
71084;DHT22;58741;52.672;13.548;2023-07-02T14:00:26;22.80;55.20
71084;DHT22;58741;52.672;13.548;2023-07-02T14:02:52;22.80;55.20
71084;DHT22;58741;52.672;13.548;2023-07-02T14:05:18;22.60;54.70
71084;DHT22;58741;52.672;13.548;2023-07-02T14:07:44;22.40;54.80
71084;DHT22;58741;52.672;13.548;2023-07-02T14:10:10;22.50;58.00
71084;DHT22;58741;52.672;13.548;2023-07-02T14:12:38;22.50;57.20
71084;DHT22;58741;52.672;13.548;2023-07-02T14:15:04;22.60;55.30
71084;DHT22;58741;52.672;13.548;2023-07-02T14:17:30;22.80;56.50
71084;DHT22;58741;52.672;13.548;2023-07-02T14:19:56;22.80;55.40
71084;DHT22;58741;52.672;13.548;2023-07-02T14:22:22;23.00;53.70
71084;DHT22;58741;52.672;13.548;2023-07-02T14:24:47;23.20;57.20
71084;DHT22;58741;52.672;13.548;2023-07-02T14:27:13;23.30;56.20
71084;DHT22;58741;52.672;13.548;2023-07-02T14:29:38;23.40;56.00
71084;DHT22;58741;52.672;13.548;2023-07-02T14:32:04;23.30;53.90
71084;DHT22;58741;52.672;13.548;2023-07-02T14:34:30;23.10;51.60
71084;DHT22;58741;52.672;13.548;2023-07-02T14:36:56;22.90;55.90
71084;DHT22;58741;52.672;13.548;2023-07-02T14:39:22;22.80;55.20
71084;DHT22;58741;52.672;13.548;2023-07-02T14:41:48;22.80;53.30
71084;DHT22;58741;52.672;13.548;2023-07-02T14:44:13;22.90;52.40
71084;DHT22;58741;52.672;13.548;2023-07-02T14:46:39;22.80;52.10
71084;DHT22;58741;52.672;13.548;2023-07-02T14:49:05;22.70;54.20
71084;DHT22;58741;52.672;13.548;2023-07-02T14:51:30;22.50;52.10
71084;DHT22;58741;52.672;13.548;2023-07-02T14:53:56;22.30;56.00
71084;DHT22;58741;52.672;13.548;2023-07-02T14:56:22;22.30;57.30
71084;DHT22;58741;52.672;13.548;2023-07-02T14:58:47;22.20;57.40
71084;DHT22;58741;52.672;13.548;2023-07-02T15:01:14;22.10;56.10
71084;DHT22;58741;52.672;13.548;2023-07-02T15:03:40;21.90;55.40
71084;DHT22;58741;52.672;13.548;2023-07-02T15:06:13;21.80;56.80
71084;DHT22;58741;52.672;13.548;2023-07-02T15:08:39;21.80;60.50
71084;DHT22;58741;52.672;13.548;2023-07-02T15:11:06;22.00;57.10
71084;DHT22;58741;52.672;13.548;2023-07-02T15:13:32;22.30;57.30
71084;DHT22;58741;52.672;13.548;2023-07-02T15:15:58;22.60;58.70
71084;DHT22;58741;52.672;13.548;2023-07-02T15:18:24;22.90;56.50